Velero IV — WDD6435 — position and weather

sailwx.info

Track history (hours):
 
Tides and Currents Weather Stations Pressure Air Temp Water Temp Dewpoint Dewpoint Depression Visibility Wind Speed Wind Dir Waves Ship Positions

Velero IV

Owner: Velero IV Charters, LLC, Edmonds, WA. More information available from US FCC via Universal Licensing System and Coast Guard Vessel Documentation Center.

Last reported at 2017-Oct-19 11:00 UTC. Time now 2017-Oct-19 11:13 UTC.
Position N 34°01' W 119°32'.

Length 34 m; draft 4 m.

Type: Cargo ship. MMSI: 367172910.

Date/timePositionNaut miles runAvg speedWind from/ knotsBaromVisibWave heightAir tempDewpointWater temp
2017-Oct-19 11:00N 34°01' W 119°32'0 0.0
2017-Oct-19 10:28N 34°01' W 119°32'0 0.1
2017-Oct-19 10:00N 34°01' W 119°32'0 0.1
2017-Oct-19 09:30N 34°01' W 119°32'0 0.0
2017-Oct-19 08:55N 34°01' W 119°32'0 0.1
2017-Oct-19 08:30N 34°01' W 119°32'0 0.0
2017-Oct-19 07:58N 34°01' W 119°32'0 0.1
2017-Oct-19 07:29N 34°01' W 119°32'0 0.1
2017-Oct-19 07:00N 34°01' W 119°32'0 0.1
2017-Oct-19 06:29N 34°01' W 119°32'0 0.0
2017-Oct-19 06:00N 34°01' W 119°32'0 0.1
2017-Oct-19 05:26N 34°01' W 119°32'0 0.0
2017-Oct-19 04:59N 34°01' W 119°32'0 0.1
2017-Oct-19 04:27N 34°01' W 119°32'0 0.0
2017-Oct-19 03:58N 34°01' W 119°32'0 0.0
2017-Oct-19 03:30N 34°01' W 119°32'0 0.1
2017-Oct-19 03:00N 34°01' W 119°32'0 0.1
2017-Oct-19 02:30N 34°01' W 119°32'0 0.0
2017-Oct-19 01:59N 34°01' W 119°32'0 0.0
2017-Oct-19 01:30N 34°01' W 119°32'0 0.0
2017-Oct-19 01:00N 34°01' W 119°32'2 4.8
2017-Oct-19 00:30N 33°59' W 119°30'1 2.8
2017-Oct-19 00:00N 33°58' W 119°29'0 0.2
2017-Oct-18 23:30N 33°58' W 119°29'0 0.4
2017-Oct-18 23:00N 33°58' W 119°29'0 0.2
2017-Oct-18 22:30N 33°58' W 119°29'2 3.6
2017-Oct-18 22:00N 33°59' W 119°30'2 4.2
2017-Oct-18 21:30N 34°01' W 119°32'0 0.0
2017-Oct-18 20:55N 34°01' W 119°32'0 0.0
2017-Oct-18 20:19N 34°01' W 119°32'0 0.0
2017-Oct-18 20:00N 34°01' W 119°32'0 0.0
2017-Oct-18 19:28N 34°01' W 119°32'0 0.0
2017-Oct-18 19:00N 34°01' W 119°32'0 0.0
2017-Oct-18 18:30N 34°01' W 119°32'3 5.2
2017-Oct-18 18:00N 33°59' W 119°30'1 2.7
2017-Oct-18 17:30N 33°58' W 119°29'0 0.1
2017-Oct-18 17:00N 33°58' W 119°29'0 0.3
2017-Oct-18 16:30N 33°58' W 119°29'0 0.2
2017-Oct-18 16:00N 33°58' W 119°29'0 0.1
2017-Oct-18 15:24N 33°58' W 119°29'0 0.1
2017-Oct-18 14:57N 33°58' W 119°29'2 1.6
2017-Oct-18 13:58N 33°59' W 119°30'2 4.5
2017-Oct-18 13:29N 34°01' W 119°32'0 0.0
2017-Oct-18 12:54N 34°01' W 119°32'0 0.0
2017-Oct-18 12:27N 34°01' W 119°32'0 0.0
2017-Oct-18 11:59N 34°01' W 119°32'0 0.0
2017-Oct-18 11:26N 34°01' W 119°32'0 0.0
2017-Oct-18 11:00N 34°01' W 119°32'0 0.0
2017-Oct-18 10:29N 34°01' W 119°32'0 0.0
2017-Oct-18 10:00N 34°01' W 119°32'0 0.0
2017-Oct-18 09:30N 34°01' W 119°32'0 0.0
2017-Oct-18 08:59N 34°01' W 119°32'0 0.0
2017-Oct-18 08:27N 34°01' W 119°32'0 0.0
2017-Oct-18 07:57N 34°01' W 119°32'0 0.0
2017-Oct-18 07:30N 34°01' W 119°32'0 0.0
2017-Oct-18 06:57N 34°01' W 119°32'0 0.0
2017-Oct-18 06:30N 34°01' W 119°32'0 0.0
2017-Oct-18 06:00N 34°01' W 119°32'0 0.0
2017-Oct-18 05:30N 34°01' W 119°32'0 0.0
2017-Oct-18 05:00N 34°01' W 119°32'0 0.0
2017-Oct-18 04:13N 34°01' W 119°32'0 0.0
2017-Oct-18 03:56N 34°01' W 119°32'0 0.0
2017-Oct-18 03:29N 34°01' W 119°32'0 0.0
2017-Oct-18 02:56N 34°01' W 119°32'0 0.0
2017-Oct-18 02:28N 34°01' W 119°32'0 0.0
2017-Oct-18 01:56N 34°01' W 119°32'0 0.2
2017-Oct-18 01:20N 34°01' W 119°32'3 8.0
2017-Oct-18 01:00N 33°59' W 119°30'1 1.7
2017-Oct-18 00:28N 33°58' W 119°29'0 0.1
2017-Oct-18 00:00N 33°58' W 119°29'0 0.2
2017-Oct-17 23:29N 33°58' W 119°29'0 0.6
2017-Oct-17 23:00N 33°58' W 119°29'0 0.7
2017-Oct-17 22:28N 33°58' W 119°29'0 0.0
2017-Oct-17 22:00N 33°58' W 119°29'2 4.8
2017-Oct-17 21:29N 33°60' W 119°31'1 2.7
2017-Oct-17 20:57N 34°01' W 119°32'0 0.0
2017-Oct-17 20:30N 34°01' W 119°32'0 0.1
2017-Oct-17 20:00N 34°01' W 119°32'0 0.1
2017-Oct-17 19:29N 34°01' W 119°32'0 0.0
2017-Oct-17 19:00N 34°01' W 119°32'0 0.0
2017-Oct-17 18:29N 34°01' W 119°32'1 1.1
2017-Oct-17 18:00N 34°01' W 119°31'3 6.2
2017-Oct-17 17:29N 33°58' W 119°29'0 0.7
2017-Oct-17 17:00N 33°58' W 119°29'0 0.2
2017-Oct-17 16:30N 33°58' W 119°29'0 0.4
2017-Oct-17 16:00N 33°58' W 119°29'0 0.0
2017-Oct-17 15:28N 33°58' W 119°29'0 0.2
2017-Oct-17 14:59N 33°58' W 119°29'0 0.1
2017-Oct-17 14:30N 33°58' W 119°29'0 0.7
2017-Oct-17 14:00N 33°58' W 119°29'3 6.9
2017-Oct-17 13:30N 34°01' W 119°32'0 0.0
2017-Oct-17 13:00N 34°01' W 119°32'0 0.0
2017-Oct-17 12:30N 34°01' W 119°32'0 0.0
2017-Oct-17 12:00N 34°01' W 119°32'0 0.0
2017-Oct-17 11:30N 34°01' W 119°32'0 0.0
2017-Oct-17 11:00N 34°01' W 119°32'0 0.0
2017-Oct-17 10:30N 34°01' W 119°32'0 0.0
2017-Oct-17 10:00N 34°01' W 119°32'0 0.0
2017-Oct-17 09:30N 34°01' W 119°32'0 0.0
2017-Oct-17 09:00N 34°01' W 119°32'0 0.0
2017-Oct-17 08:30N 34°01' W 119°32'0 0.0
2017-Oct-17 08:00N 34°01' W 119°32'0 0.0
2017-Oct-17 07:30N 34°01' W 119°32'0 0.0
2017-Oct-17 07:00N 34°01' W 119°32'0 0.0
2017-Oct-17 06:30N 34°01' W 119°32'0 0.0
2017-Oct-17 06:00N 34°01' W 119°32'0 0.0
2017-Oct-17 05:30N 34°01' W 119°32'0 0.0
2017-Oct-17 05:00N 34°01' W 119°32'0 0.0
2017-Oct-17 04:30N 34°01' W 119°32'0 0.0
2017-Oct-17 03:56N 34°01' W 119°32'0 0.0
2017-Oct-17 03:30N 34°01' W 119°32'0 0.0
2017-Oct-17 03:00N 34°01' W 119°32'0 0.0
2017-Oct-17 02:30N 34°01' W 119°32'0 0.0
2017-Oct-17 02:00N 34°01' W 119°32'3 4.7
2017-Oct-17 01:27N 33°59' W 119°30'1 2.2
2017-Oct-17 00:54N 33°58' W 119°29'0 0.5
2017-Oct-17 00:26N 33°58' W 119°29'0 0.1
2017-Oct-16 23:57N 33°58' W 119°29'0 0.5
2017-Oct-16 23:27N 33°58' W 119°29'0 0.3
2017-Oct-16 22:59N 33°58' W 119°29'0 0.8
2017-Oct-16 22:30N 33°58' W 119°29'1 1.6
2017-Oct-16 21:57N 33°59' W 119°29'3 6.7
2017-Oct-16 21:30N 34°01' W 119°32'0 0.0
2017-Oct-16 21:00N 34°01' W 119°32'0 0.0
2017-Oct-16 20:30N 34°01' W 119°32'0 0.0
2017-Oct-16 19:59N 34°01' W 119°32'0 0.0
2017-Oct-16 19:30N 34°01' W 119°32'0 0.0
2017-Oct-16 18:58N 34°01' W 119°32'0 0.0
2017-Oct-16 18:30N 34°01' W 119°32'2 3.8
2017-Oct-16 18:00N 33°59' W 119°31'2 4.2
2017-Oct-16 17:30N 33°58' W 119°29'0 0.0
2017-Oct-16 16:53N 33°58' W 119°29'0 0.5
2017-Oct-16 16:28N 33°58' W 119°29'0 0.1
2017-Oct-16 16:00N 33°58' W 119°29'0 0.2
2017-Oct-16 15:30N 33°58' W 119°29'0 0.3
2017-Oct-16 14:58N 33°58' W 119°29'0 0.1
2017-Oct-16 14:29N 33°58' W 119°29'4 4.1
2017-Oct-16 13:30N 34°01' W 119°32'0 0.0
2017-Oct-16 13:00N 34°01' W 119°32'0 0.0
2017-Oct-16 12:30N 34°01' W 119°32'0 0.0
2017-Oct-16 12:00N 34°01' W 119°32'0 0.0
2017-Oct-16 11:30N 34°01' W 119°32'0 0.0
2017-Oct-16 11:00N 34°01' W 119°32'0 0.0
2017-Oct-16 10:30N 34°01' W 119°32'0 0.0
2017-Oct-16 10:00N 34°01' W 119°32'0 0.0
2017-Oct-16 09:30N 34°01' W 119°32'0 0.0
2017-Oct-16 09:00N 34°01' W 119°32'0 0.0
2017-Oct-16 08:30N 34°01' W 119°32'0 0.0
2017-Oct-16 08:00N 34°01' W 119°32'0 0.0
2017-Oct-16 07:30N 34°01' W 119°32'0 0.0
2017-Oct-16 07:00N 34°01' W 119°32'0 0.0
2017-Oct-16 06:30N 34°01' W 119°32'0 0.0
2017-Oct-16 06:00N 34°01' W 119°32'0 0.0
2017-Oct-16 05:30N 34°01' W 119°32'0 0.0
2017-Oct-16 05:00N 34°01' W 119°32'0 0.0
2017-Oct-16 04:30N 34°01' W 119°32'0 0.0
2017-Oct-16 04:00N 34°01' W 119°32'0 0.0
2017-Oct-16 03:30N 34°01' W 119°32'0 0.0
2017-Oct-16 03:00N 34°01' W 119°32'0 0.0
2017-Oct-16 02:30N 34°01' W 119°32'0 0.0
2017-Oct-16 02:00N 34°01' W 119°32'2 4.5
2017-Oct-16 01:30N 33°59' W 119°30'2 3.2
2017-Oct-16 01:00N 33°58' W 119°29'0 0.3
2017-Oct-16 00:28N 33°58' W 119°29'0 0.1
2017-Oct-15 23:57N 33°58' W 119°29'0 0.6
2017-Oct-15 23:25N 33°58' W 119°29'0 0.7
2017-Oct-15 23:00N 33°58' W 119°29'1 2.2
2017-Oct-15 22:30N 33°59' W 119°29'1 2.3
2017-Oct-15 21:54N 33°60' W 119°31'2 4.8
2017-Oct-15 21:29N 34°01' W 119°32'0 0.0
2017-Oct-15 20:59N 34°01' W 119°32'0 0.0
2017-Oct-15 20:17N 34°01' W 119°32'0 0.0
2017-Oct-15 20:00N 34°01' W 119°32'0 0.0
2017-Oct-15 19:30N 34°01' W 119°32'0 0.0
2017-Oct-15 18:58N 34°01' W 119°32'0 0.0
2017-Oct-15 18:30N 34°01' W 119°32'1 1.2
2017-Oct-15 18:00N 34°01' W 119°32'3 7.0
2017-Oct-15 17:30N 33°58' W 119°29'0 0.0
2017-Oct-15 17:00N 33°58' W 119°29'0 0.3
2017-Oct-15 16:29N 33°58' W 119°29'0 0.3
2017-Oct-15 15:57N 33°58' W 119°29'0 0.1
2017-Oct-15 15:29N 33°58' W 119°29'0 0.6
2017-Oct-15 15:00N 33°58' W 119°29'2 1.6
2017-Oct-15 13:59N 33°59' W 119°30'2 4.7
2017-Oct-15 13:30N 34°01' W 119°32'0 0.0
2017-Oct-15 13:00N 34°01' W 119°32'0 0.0
2017-Oct-15 12:30N 34°01' W 119°32'0 0.0
2017-Oct-15 12:00N 34°01' W 119°32'0 0.0
2017-Oct-15 11:30N 34°01' W 119°32'0 0.0
2017-Oct-15 11:00N 34°01' W 119°32'1 2.1
2017-Oct-15 10:30N 34°02' W 119°31'5 9.0
2017-Oct-15 10:00N 34°06' W 119°33'5 9.1
2017-Oct-15 09:30N 34°10' W 119°35'5 9.2
2017-Oct-15 09:00N 34°15' W 119°36'5 9.7
2017-Oct-15 08:30N 34°19' W 119°38'5 9.7
2017-Oct-15 08:00N 34°24' W 119°40'1 1.6
2017-Oct-15 07:30N 34°24' W 119°41'0 0.0
2017-Oct-15 07:00N 34°24' W 119°41'0 0.0
2017-Oct-15 06:30N 34°24' W 119°41'0 0.0
2017-Oct-15 06:00N 34°24' W 119°41'0 0.0
2017-Oct-15 05:30N 34°24' W 119°41'0 0.0
2017-Oct-15 05:00N 34°24' W 119°41'1 2.5
2017-Oct-15 04:27N 34°23' W 119°40'4 8.9
2017-Oct-15 04:00N 34°19' W 119°39'5 9.1
2017-Oct-15 03:30N 34°15' W 119°37'5 9.2
2017-Oct-15 03:00N 34°11' W 119°35'5 9.2
2017-Oct-15 02:30N 34°07' W 119°32'5 9.1
2017-Oct-15 01:59N 34°02' W 119°30'4 9.4
2017-Oct-15 01:30N 33°58' W 119°29'0 0.4
2017-Oct-15 01:00N 33°58' W 119°29'0 0.3
2017-Oct-15 00:29N 33°58' W 119°29'0 0.2
2017-Oct-14 23:58N 33°58' W 119°29'0 0.2
2017-Oct-14 23:30N 33°58' W 119°29'1 1.4
2017-Oct-14 23:00N 33°59' W 119°29'0 0.5
2017-Oct-14 22:30N 33°59' W 119°29'0 0.4
2017-Oct-14 22:00N 33°59' W 119°29'3 6.1
2017-Oct-14 21:30N 34°01' W 119°32'0 0.0
2017-Oct-14 21:00N 34°01' W 119°32'0 0.0
2017-Oct-14 20:29N 34°01' W 119°32'0 0.0
2017-Oct-14 20:00N 34°01' W 119°32'0 0.0
2017-Oct-14 19:30N 34°01' W 119°32'0 0.0
2017-Oct-14 19:00N 34°01' W 119°32'0 0.0
2017-Oct-14 18:30N 34°01' W 119°32'0 0.2
2017-Oct-14 18:00N 34°01' W 119°32'4 7.8
2017-Oct-14 17:30N 33°58' W 119°29'0 0.2
2017-Oct-14 17:00N 33°58' W 119°29'0 0.1
2017-Oct-14 16:30N 33°58' W 119°29'0 0.6
2017-Oct-14 16:00N 33°58' W 119°29'0 0.3
2017-Oct-14 15:30N 33°58' W 119°29'0 0.1
2017-Oct-14 14:59N 33°58' W 119°29'0 0.3
2017-Oct-14 14:30N 33°58' W 119°29'1 1.7
2017-Oct-14 14:00N 33°58' W 119°30'3 6.0
2017-Oct-14 13:30N 34°01' W 119°32'0 0.0
2017-Oct-14 13:00N 34°01' W 119°32'0 0.0
2017-Oct-14 12:30N 34°01' W 119°32'0 0.1
2017-Oct-14 12:00N 34°01' W 119°32'0 0.0
2017-Oct-14 11:30N 34°01' W 119°32'0 0.1
2017-Oct-14 11:00N 34°01' W 119°32'0 0.1
2017-Oct-14 10:30N 34°01' W 119°32'0 0.0
2017-Oct-14 10:00N 34°01' W 119°32'0 0.0
2017-Oct-14 09:30N 34°01' W 119°32'0 0.0
2017-Oct-14 08:58N 34°01' W 119°32'0 0.1
2017-Oct-14 08:30N 34°01' W 119°32'0 0.1
2017-Oct-14 08:00N 34°01' W 119°32'0 0.1
2017-Oct-14 07:30N 34°01' W 119°32'0 0.0
2017-Oct-14 07:00N 34°01' W 119°32'0 0.1
2017-Oct-14 06:30N 34°01' W 119°32'0 0.0
2017-Oct-14 06:00N 34°01' W 119°32'0 0.0
2017-Oct-14 05:30N 34°01' W 119°32'0 0.0
2017-Oct-14 05:00N 34°01' W 119°32'0 0.0
2017-Oct-14 04:30N 34°01' W 119°32'0 0.0
2017-Oct-14 04:00N 34°01' W 119°32'0 0.0
2017-Oct-14 03:30N 34°01' W 119°32'0 0.0
2017-Oct-14 03:00N 34°01' W 119°32'2 4.1
2017-Oct-14 02:30N 33°59' W 119°30'1 2.8
2017-Oct-14 02:00N 33°58' W 119°29'1 1.7
2017-Oct-14 01:30N 33°58' W 119°28'1 1.7
2017-Oct-14 00:58N 33°58' W 119°27'3 5.5
2017-Oct-14 00:29N 33°55' W 119°28'1 2.2
2017-Oct-14 00:00N 33°54' W 119°28'0 0.7
2017-Oct-13 23:30N 33°54' W 119°28'0 0.1
2017-Oct-13 23:00N 33°54' W 119°28'2 2.9
2017-Oct-13 22:26N 33°55' W 119°29'0 0.5
2017-Oct-13 21:56N 33°55' W 119°30'3 6.7
2017-Oct-13 21:29N 33°57' W 119°33'4 9.0
2017-Oct-13 21:00N 33°58' W 119°38'4 2.4
2017-Oct-13 19:26N 33°58' W 119°42'0 0.0
2017-Oct-13 19:00N 33°58' W 119°42'0 0.0
2017-Oct-13 18:30N 33°58' W 119°42'3 5.4
2017-Oct-13 18:00N 33°57' W 119°39'4 8.6
2017-Oct-13 17:30N 33°57' W 119°34'4 7.8
2017-Oct-13 17:00N 33°58' W 119°29'0 0.6
2017-Oct-13 16:30N 33°58' W 119°29'0 0.4
2017-Oct-13 16:00N 33°58' W 119°29'0 0.2
2017-Oct-13 15:26N 33°58' W 119°29'0 0.5
2017-Oct-13 15:00N 33°58' W 119°29'0 0.4
2017-Oct-13 14:30N 33°58' W 119°29'2 4.4
2017-Oct-13 14:00N 33°60' W 119°31'2 3.9
2017-Oct-13 13:30N 34°01' W 119°32'0 0.0
2017-Oct-13 13:00N 34°01' W 119°32'0 0.0
2017-Oct-13 12:30N 34°01' W 119°32'0 0.0
2017-Oct-13 11:59N 34°01' W 119°32'0 0.0
2017-Oct-13 11:30N 34°01' W 119°32'0 0.0
2017-Oct-13 11:00N 34°01' W 119°32'0 0.0
2017-Oct-13 10:28N 34°01' W 119°32'0 0.0
2017-Oct-13 10:00N 34°01' W 119°32'0 0.0
2017-Oct-13 09:30N 34°01' W 119°32'0 0.0
2017-Oct-13 09:00N 34°01' W 119°32'0 0.0
2017-Oct-13 08:30N 34°01' W 119°32'0 0.0
2017-Oct-13 08:00N 34°01' W 119°32'0 0.0
2017-Oct-13 07:30N 34°01' W 119°32'0 0.0
2017-Oct-13 07:00N 34°01' W 119°32'0 0.0
2017-Oct-13 06:30N 34°01' W 119°32'0 0.0
2017-Oct-13 06:00N 34°01' W 119°32'0 0.0
2017-Oct-13 05:30N 34°01' W 119°32'0 0.0
2017-Oct-13 05:00N 34°01' W 119°32'0 0.0
2017-Oct-13 04:30N 34°01' W 119°32'0 0.0
2017-Oct-13 04:00N 34°01' W 119°32'0 0.0
2017-Oct-13 03:29N 34°01' W 119°32'0 0.0
2017-Oct-13 03:00N 34°01' W 119°32'0 0.0
2017-Oct-13 02:28N 34°01' W 119°32'0 0.0
2017-Oct-13 01:59N 34°01' W 119°32'0 0.0
2017-Oct-13 01:30N 34°01' W 119°32'0 0.0
2017-Oct-13 01:00N 34°01' W 119°32'0 0.0
2017-Oct-13 00:30N 34°01' W 119°32'0 0.0
2017-Oct-12 23:57N 34°01' W 119°32'0 0.5
2017-Oct-12 23:30N 34°01' W 119°32'4 7.5
2017-Oct-12 23:00N 33°58' W 119°29'1 2.0
2017-Oct-12 22:29N 33°59' W 119°29'3 5.5
2017-Oct-12 21:59N 34°01' W 119°32'0 0.2
2017-Oct-12 21:30N 34°01' W 119°32'0 0.0
2017-Oct-12 20:59N 34°01' W 119°32'0 0.0
2017-Oct-12 20:30N 34°01' W 119°32'0 0.0
2017-Oct-12 20:00N 34°01' W 119°32'3 5.1
2017-Oct-12 19:28N 33°59' W 119°30'1 3.1
2017-Oct-12 19:00N 33°58' W 119°29'0 0.2
2017-Oct-12 18:29N 33°58' W 119°29'0 0.3
2017-Oct-12 18:00N 33°58' W 119°29'0 0.3
2017-Oct-12 17:25N 33°58' W 119°29'0 0.2
2017-Oct-12 17:00N 33°58' W 119°29'0 0.4
2017-Oct-12 16:30N 33°58' W 119°29'0 0.5
2017-Oct-12 15:57N 33°58' W 119°29'0 0.6
2017-Oct-12 15:30N 33°58' W 119°29'0 0.4
2017-Oct-12 15:00N 33°58' W 119°29'0 0.7
2017-Oct-12 14:26N 33°58' W 119°29'2 5.0
2017-Oct-12 14:00N 33°60' W 119°31'2 3.6
2017-Oct-12 13:28N 34°01' W 119°32'0 0.0
2017-Oct-12 13:00N 34°01' W 119°32'0 0.0
2017-Oct-12 12:30N 34°01' W 119°32'0 0.0
2017-Oct-12 11:55N 34°01' W 119°32'0 0.0
2017-Oct-12 11:29N 34°01' W 119°32'0 0.0
2017-Oct-12 10:55N 34°01' W 119°32'0 0.0
2017-Oct-12 10:30N 34°01' W 119°32'0 0.0
2017-Oct-12 10:00N 34°01' W 119°32'0 0.0
2017-Oct-12 09:30N 34°01' W 119°32'0 0.0
2017-Oct-12 09:00N 34°01' W 119°32'0 0.0
2017-Oct-12 08:30N 34°01' W 119°32'0 0.0
2017-Oct-12 08:00N 34°01' W 119°32'0 0.0
2017-Oct-12 07:30N 34°01' W 119°32'0 0.0
2017-Oct-12 07:00N 34°01' W 119°32'0 0.0
2017-Oct-12 06:30N 34°01' W 119°32'0 0.0
2017-Oct-12 06:00N 34°01' W 119°32'0 0.0
2017-Oct-12 05:30N 34°01' W 119°32'0 0.0
2017-Oct-12 04:56N 34°01' W 119°32'0 0.0
2017-Oct-12 04:30N 34°01' W 119°32'0 0.0
2017-Oct-12 03:59N 34°01' W 119°32'0 0.0
2017-Oct-12 03:30N 34°01' W 119°32'0 0.0
2017-Oct-12 03:00N 34°01' W 119°32'0 0.0
2017-Oct-12 02:30N 34°01' W 119°32'0 0.0
2017-Oct-12 02:00N 34°01' W 119°32'4 8.1
2017-Oct-12 01:30N 33°58' W 119°29'0 0.2
2017-Oct-12 01:00N 33°58' W 119°29'0 0.1
2017-Oct-12 00:29N 33°58' W 119°29'0 0.5
2017-Oct-12 00:00N 33°58' W 119°29'0 0.3
2017-Oct-11 23:30N 33°58' W 119°29'0 0.1
2017-Oct-11 23:00N 33°58' W 119°29'0 0.2
2017-Oct-11 22:30N 33°58' W 119°29'0 0.1
2017-Oct-11 21:59N 33°58' W 119°29'3 5.3
2017-Oct-11 21:30N 33°59' W 119°27'0 0.7
2017-Oct-11 20:59N 33°59' W 119°27'2 3.4
2017-Oct-11 20:29N 33°58' W 119°28'0 0.4
2017-Oct-11 19:59N 33°58' W 119°29'0 0.5
2017-Oct-11 19:30N 33°58' W 119°29'0 0.1
2017-Oct-11 19:00N 33°58' W 119°29'0 0.1
2017-Oct-11 18:30N 33°58' W 119°29'0 0.4
2017-Oct-11 18:00N 33°58' W 119°29'0 0.4
2017-Oct-11 17:30N 33°58' W 119°29'0 0.2
2017-Oct-11 17:00N 33°58' W 119°29'0 0.0
2017-Oct-11 00:00N 33°58' W 119°29'0 0.2
2017-Oct-10 23:30N 33°58' W 119°29'0 0.1
2017-Oct-10 23:00N 33°58' W 119°29'0 0.1
2017-Oct-10 22:30N 33°58' W 119°29'0 0.1
2017-Oct-10 22:00N 33°58' W 119°29'2 3.3
2017-Oct-10 21:30N 33°59' W 119°30'2 4.9
2017-Oct-10 21:00N 34°01' W 119°32'0 0.0
2017-Oct-10 20:30N 34°01' W 119°32'0 0.0
2017-Oct-10 20:00N 34°01' W 119°32'0 0.0
2017-Oct-10 19:30N 34°01' W 119°32'0 0.0
2017-Oct-10 19:00N 34°01' W 119°32'0 0.0
2017-Oct-10 18:30N 34°01' W 119°32'0 0.0
2017-Oct-10 18:00N 34°01' W 119°32'0 0.0
2017-Oct-10 17:30N 34°01' W 119°32'0 0.0
2017-Oct-10 17:00N 34°01' W 119°32'0 0.0
2017-Oct-10 16:30N 34°01' W 119°32'0 0.0
2017-Oct-10 16:00N 34°01' W 119°32'0 0.0
2017-Oct-10 15:30N 34°01' W 119°32'0 0.0
2017-Oct-10 15:00N 34°01' W 119°32'0 0.0
2017-Oct-10 14:00N 34°01' W 119°32'0 0.0
2017-Oct-10 13:30N 34°01' W 119°32'0 0.0
2017-Oct-10 13:00N 34°01' W 119°32'0 0.0
2017-Oct-10 12:30N 34°01' W 119°32'0 0.0
2017-Oct-10 12:00N 34°01' W 119°32'0 0.1
2017-Oct-10 11:30N 34°01' W 119°32'0 0.0
2017-Oct-10 11:00N 34°01' W 119°32'0 0.0
2017-Oct-10 10:30N 34°01' W 119°32'0 0.0
2017-Oct-10 10:00N 34°01' W 119°32'0 0.0
2017-Oct-10 09:30N 34°01' W 119°32'0 0.0
2017-Oct-10 09:00N 34°01' W 119°32'0 0.1
2017-Oct-10 08:30N 34°01' W 119°32'0 0.1
2017-Oct-10 08:00N 34°01' W 119°32'0 0.0
2017-Oct-10 07:30N 34°01' W 119°32'0 0.1
2017-Oct-10 07:00N 34°01' W 119°32'0 0.0
2017-Oct-10 06:30N 34°01' W 119°32'0 0.0
2017-Oct-10 06:00N 34°01' W 119°32'0 0.1
2017-Oct-10 05:30N 34°01' W 119°32'0 0.0
2017-Oct-10 05:00N 34°01' W 119°32'0 0.0
2017-Oct-10 04:30N 34°01' W 119°32'0 0.0
2017-Oct-10 04:00N 34°01' W 119°32'0 0.7
2017-Oct-10 03:30N 34°01' W 119°32'4 8.6
2017-Oct-10 03:00N 34°05' W 119°28'5 9.1
2017-Oct-10 02:30N 34°09' W 119°26'4 8.7
2017-Oct-10 02:00N 34°12' W 119°22'4 8.4
2017-Oct-10 01:30N 34°14' W 119°18'2 3.2
2017-Oct-10 01:00N 34°14' W 119°16'0 0.0
2017-Oct-10 00:23N 34°14' W 119°16'0 0.0
2017-Oct-10 00:00N 34°14' W 119°16'0 0.1
2017-Oct-09 23:28N 34°14' W 119°16'0 0.0
2017-Oct-09 23:00N 34°14' W 119°16'0 0.0
2017-Oct-09 22:30N 34°14' W 119°16'0 0.1
2017-Oct-09 21:59N 34°14' W 119°16'0 0.0
2017-Oct-09 21:30N 34°14' W 119°16'0 0.1
2017-Oct-09 20:57N 34°14' W 119°16'0 0.0
2017-Oct-09 20:26N 34°14' W 119°16'0 0.0
2017-Oct-09 19:58N 34°14' W 119°16'0 0.0
2017-Oct-09 19:26N 34°14' W 119°16'0 0.0
2017-Oct-09 19:00N 34°14' W 119°16'0 0.0
2017-Oct-09 18:30N 34°14' W 119°16'0 0.0
2017-Oct-09 18:00N 34°14' W 119°16'0 0.0
2017-Oct-09 17:29N 34°14' W 119°16'0 0.0
2017-Oct-09 16:57N 34°14' W 119°16'0 0.0
2017-Oct-09 16:30N 34°14' W 119°16'0 0.0
2017-Oct-09 16:00N 34°14' W 119°16'0 0.0
2017-Oct-09 15:30N 34°14' W 119°16'0 0.0
2017-Oct-09 15:00N 34°14' W 119°16'0 0.0
2017-Oct-09 14:30N 34°14' W 119°16'0 0.0
2017-Oct-09 14:00N 34°14' W 119°16'0 0.0
2017-Oct-09 13:28N 34°14' W 119°16'0 0.0
2017-Oct-09 12:50N 34°14' W 119°16'0 0.0
2017-Oct-09 12:30N 34°14' W 119°16'0 0.1
2017-Oct-09 11:57N 34°14' W 119°16'0 0.1
2017-Oct-09 11:29N 34°14' W 119°16'  
Track history (hours):
 
Tides and Currents Weather Stations Pressure Air Temp Water Temp Dewpoint Dewpoint Depression Visibility Wind Speed Wind Dir Waves Ship Positions

Velero IV

Owner: Velero IV Charters, LLC, Edmonds, WA. More information available from US FCC via Universal Licensing System and Coast Guard Vessel Documentation Center.

Last reported at 2017-Oct-19 11:00 UTC. Time now 2017-Oct-19 11:13 UTC.
Position N 34°01' W 119°32'.

Length 34 m; draft 4 m.

Type: Cargo ship. MMSI: 367172910.

Date/timePositionNaut miles runAvg speedWind from/ knotsBaromVisibWave heightAir tempDewpointWater temp
2017-Oct-19 11:00N 34°01' W 119°32'0 0.0
2017-Oct-19 10:28N 34°01' W 119°32'0 0.1
2017-Oct-19 10:00N 34°01' W 119°32'0 0.1
2017-Oct-19 09:30N 34°01' W 119°32'0 0.0
2017-Oct-19 08:55N 34°01' W 119°32'0 0.1
2017-Oct-19 08:30N 34°01' W 119°32'0 0.0
2017-Oct-19 07:58N 34°01' W 119°32'0 0.1
2017-Oct-19 07:29N 34°01' W 119°32'0 0.1
2017-Oct-19 07:00N 34°01' W 119°32'0 0.1
2017-Oct-19 06:29N 34°01' W 119°32'0 0.0
2017-Oct-19 06:00N 34°01' W 119°32'0 0.1
2017-Oct-19 05:26N 34°01' W 119°32'0 0.0
2017-Oct-19 04:59N 34°01' W 119°32'0 0.1
2017-Oct-19 04:27N 34°01' W 119°32'0 0.0
2017-Oct-19 03:58N 34°01' W 119°32'0 0.0
2017-Oct-19 03:30N 34°01' W 119°32'0 0.1
2017-Oct-19 03:00N 34°01' W 119°32'0 0.1
2017-Oct-19 02:30N 34°01' W 119°32'0 0.0
2017-Oct-19 01:59N 34°01' W 119°32'0 0.0
2017-Oct-19 01:30N 34°01' W 119°32'0 0.0
2017-Oct-19 01:00N 34°01' W 119°32'2 4.8
2017-Oct-19 00:30N 33°59' W 119°30'1 2.8
2017-Oct-19 00:00N 33°58' W 119°29'0 0.2
2017-Oct-18 23:30N 33°58' W 119°29'0 0.4
2017-Oct-18 23:00N 33°58' W 119°29'0 0.2
2017-Oct-18 22:30N 33°58' W 119°29'2 3.6
2017-Oct-18 22:00N 33°59' W 119°30'2 4.2
2017-Oct-18 21:30N 34°01' W 119°32'0 0.0
2017-Oct-18 20:55N 34°01' W 119°32'0 0.0
2017-Oct-18 20:19N 34°01' W 119°32'0 0.0
2017-Oct-18 20:00N 34°01' W 119°32'0 0.0
2017-Oct-18 19:28N 34°01' W 119°32'0 0.0
2017-Oct-18 19:00N 34°01' W 119°32'0 0.0
2017-Oct-18 18:30N 34°01' W 119°32'3 5.2
2017-Oct-18 18:00N 33°59' W 119°30'1 2.7
2017-Oct-18 17:30N 33°58' W 119°29'0 0.1
2017-Oct-18 17:00N 33°58' W 119°29'0 0.3
2017-Oct-18 16:30N 33°58' W 119°29'0 0.2
2017-Oct-18 16:00N 33°58' W 119°29'0 0.1
2017-Oct-18 15:24N 33°58' W 119°29'0 0.1
2017-Oct-18 14:57N 33°58' W 119°29'2 1.6
2017-Oct-18 13:58N 33°59' W 119°30'2 4.5
2017-Oct-18 13:29N 34°01' W 119°32'0 0.0
2017-Oct-18 12:54N 34°01' W 119°32'0 0.0
2017-Oct-18 12:27N 34°01' W 119°32'0 0.0
2017-Oct-18 11:59N 34°01' W 119°32'0 0.0
2017-Oct-18 11:26N 34°01' W 119°32'0 0.0
2017-Oct-18 11:00N 34°01' W 119°32'0 0.0
2017-Oct-18 10:29N 34°01' W 119°32'0 0.0
2017-Oct-18 10:00N 34°01' W 119°32'0 0.0
2017-Oct-18 09:30N 34°01' W 119°32'0 0.0
2017-Oct-18 08:59N 34°01' W 119°32'0 0.0
2017-Oct-18 08:27N 34°01' W 119°32'0 0.0
2017-Oct-18 07:57N 34°01' W 119°32'0 0.0
2017-Oct-18 07:30N 34°01' W 119°32'0 0.0
2017-Oct-18 06:57N 34°01' W 119°32'0 0.0
2017-Oct-18 06:30N 34°01' W 119°32'0 0.0
2017-Oct-18 06:00N 34°01' W 119°32'0 0.0
2017-Oct-18 05:30N 34°01' W 119°32'0 0.0
2017-Oct-18 05:00N 34°01' W 119°32'0 0.0
2017-Oct-18 04:13N 34°01' W 119°32'0 0.0
2017-Oct-18 03:56N 34°01' W 119°32'0 0.0
2017-Oct-18 03:29N 34°01' W 119°32'0 0.0
2017-Oct-18 02:56N 34°01' W 119°32'0 0.0
2017-Oct-18 02:28N 34°01' W 119°32'0 0.0
2017-Oct-18 01:56N 34°01' W 119°32'0 0.2
2017-Oct-18 01:20N 34°01' W 119°32'3 8.0
2017-Oct-18 01:00N 33°59' W 119°30'1 1.7
2017-Oct-18 00:28N 33°58' W 119°29'0 0.1
2017-Oct-18 00:00N 33°58' W 119°29'0 0.2
2017-Oct-17 23:29N 33°58' W 119°29'0 0.6
2017-Oct-17 23:00N 33°58' W 119°29'0 0.7
2017-Oct-17 22:28N 33°58' W 119°29'0 0.0
2017-Oct-17 22:00N 33°58' W 119°29'2 4.8
2017-Oct-17 21:29N 33°60' W 119°31'1 2.7
2017-Oct-17 20:57N 34°01' W 119°32'0 0.0
2017-Oct-17 20:30N 34°01' W 119°32'0 0.1
2017-Oct-17 20:00N 34°01' W 119°32'0 0.1
2017-Oct-17 19:29N 34°01' W 119°32'0 0.0
2017-Oct-17 19:00N 34°01' W 119°32'0 0.0
2017-Oct-17 18:29N 34°01' W 119°32'1 1.1
2017-Oct-17 18:00N 34°01' W 119°31'3 6.2
2017-Oct-17 17:29N 33°58' W 119°29'0 0.7
2017-Oct-17 17:00N 33°58' W 119°29'0 0.2
2017-Oct-17 16:30N 33°58' W 119°29'0 0.4
2017-Oct-17 16:00N 33°58' W 119°29'0 0.0
2017-Oct-17 15:28N 33°58' W 119°29'0 0.2
2017-Oct-17 14:59N 33°58' W 119°29'0 0.1
2017-Oct-17 14:30N 33°58' W 119°29'0 0.7
2017-Oct-17 14:00N 33°58' W 119°29'3 6.9
2017-Oct-17 13:30N 34°01' W 119°32'0 0.0
2017-Oct-17 13:00N 34°01' W 119°32'0 0.0
2017-Oct-17 12:30N 34°01' W 119°32'0 0.0
2017-Oct-17 12:00N 34°01' W 119°32'0 0.0
2017-Oct-17 11:30N 34°01' W 119°32'0 0.0
2017-Oct-17 11:00N 34°01' W 119°32'0 0.0
2017-Oct-17 10:30N 34°01' W 119°32'0 0.0
2017-Oct-17 10:00N 34°01' W 119°32'0 0.0
2017-Oct-17 09:30N 34°01' W 119°32'0 0.0
2017-Oct-17 09:00N 34°01' W 119°32'0 0.0
2017-Oct-17 08:30N 34°01' W 119°32'0 0.0
2017-Oct-17 08:00N 34°01' W 119°32'0 0.0
2017-Oct-17 07:30N 34°01' W 119°32'0 0.0
2017-Oct-17 07:00N 34°01' W 119°32'0 0.0
2017-Oct-17 06:30N 34°01' W 119°32'0 0.0
2017-Oct-17 06:00N 34°01' W 119°32'0 0.0
2017-Oct-17 05:30N 34°01' W 119°32'0 0.0
2017-Oct-17 05:00N 34°01' W 119°32'0 0.0
2017-Oct-17 04:30N 34°01' W 119°32'0 0.0
2017-Oct-17 03:56N 34°01' W 119°32'0 0.0
2017-Oct-17 03:30N 34°01' W 119°32'0 0.0
2017-Oct-17 03:00N 34°01' W 119°32'0 0.0
2017-Oct-17 02:30N 34°01' W 119°32'0 0.0
2017-Oct-17 02:00N 34°01' W 119°32'3 4.7
2017-Oct-17 01:27N 33°59' W 119°30'1 2.2
2017-Oct-17 00:54N 33°58' W 119°29'0 0.5
2017-Oct-17 00:26N 33°58' W 119°29'0 0.1
2017-Oct-16 23:57N 33°58' W 119°29'0 0.5
2017-Oct-16 23:27N 33°58' W 119°29'0 0.3
2017-Oct-16 22:59N 33°58' W 119°29'0 0.8
2017-Oct-16 22:30N 33°58' W 119°29'1 1.6
2017-Oct-16 21:57N 33°59' W 119°29'3 6.7
2017-Oct-16 21:30N 34°01' W 119°32'0 0.0
2017-Oct-16 21:00N 34°01' W 119°32'0 0.0
2017-Oct-16 20:30N 34°01' W 119°32'0 0.0
2017-Oct-16 19:59N 34°01' W 119°32'0 0.0
2017-Oct-16 19:30N 34°01' W 119°32'0 0.0
2017-Oct-16 18:58N 34°01' W 119°32'0 0.0
2017-Oct-16 18:30N 34°01' W 119°32'2 3.8
2017-Oct-16 18:00N 33°59' W 119°31'2 4.2
2017-Oct-16 17:30N 33°58' W 119°29'0 0.0
2017-Oct-16 16:53N 33°58' W 119°29'0 0.5
2017-Oct-16 16:28N 33°58' W 119°29'0 0.1
2017-Oct-16 16:00N 33°58' W 119°29'0 0.2
2017-Oct-16 15:30N 33°58' W 119°29'0 0.3
2017-Oct-16 14:58N 33°58' W 119°29'0 0.1
2017-Oct-16 14:29N 33°58' W 119°29'4 4.1
2017-Oct-16 13:30N 34°01' W 119°32'0 0.0
2017-Oct-16 13:00N 34°01' W 119°32'0 0.0
2017-Oct-16 12:30N 34°01' W 119°32'0 0.0
2017-Oct-16 12:00N 34°01' W 119°32'0 0.0
2017-Oct-16 11:30N 34°01' W 119°32'0 0.0
2017-Oct-16 11:00N 34°01' W 119°32'0 0.0
2017-Oct-16 10:30N 34°01' W 119°32'0 0.0
2017-Oct-16 10:00N 34°01' W 119°32'0 0.0
2017-Oct-16 09:30N 34°01' W 119°32'0 0.0
2017-Oct-16 09:00N 34°01' W 119°32'0 0.0
2017-Oct-16 08:30N 34°01' W 119°32'0 0.0
2017-Oct-16 08:00N 34°01' W 119°32'0 0.0
2017-Oct-16 07:30N 34°01' W 119°32'0 0.0
2017-Oct-16 07:00N 34°01' W 119°32'0 0.0
2017-Oct-16 06:30N 34°01' W 119°32'0 0.0
2017-Oct-16 06:00N 34°01' W 119°32'0 0.0
2017-Oct-16 05:30N 34°01' W 119°32'0 0.0
2017-Oct-16 05:00N 34°01' W 119°32'0 0.0
2017-Oct-16 04:30N 34°01' W 119°32'0 0.0
2017-Oct-16 04:00N 34°01' W 119°32'0 0.0
2017-Oct-16 03:30N 34°01' W 119°32'0 0.0
2017-Oct-16 03:00N 34°01' W 119°32'0 0.0
2017-Oct-16 02:30N 34°01' W 119°32'0 0.0
2017-Oct-16 02:00N 34°01' W 119°32'2 4.5
2017-Oct-16 01:30N 33°59' W 119°30'2 3.2
2017-Oct-16 01:00N 33°58' W 119°29'0 0.3
2017-Oct-16 00:28N 33°58' W 119°29'0 0.1
2017-Oct-15 23:57N 33°58' W 119°29'0 0.6
2017-Oct-15 23:25N 33°58' W 119°29'0 0.7
2017-Oct-15 23:00N 33°58' W 119°29'1 2.2
2017-Oct-15 22:30N 33°59' W 119°29'1 2.3
2017-Oct-15 21:54N 33°60' W 119°31'2 4.8
2017-Oct-15 21:29N 34°01' W 119°32'0 0.0
2017-Oct-15 20:59N 34°01' W 119°32'0 0.0
2017-Oct-15 20:17N 34°01' W 119°32'0 0.0
2017-Oct-15 20:00N 34°01' W 119°32'0 0.0
2017-Oct-15 19:30N 34°01' W 119°32'0 0.0
2017-Oct-15 18:58N 34°01' W 119°32'0 0.0
2017-Oct-15 18:30N 34°01' W 119°32'1 1.2
2017-Oct-15 18:00N 34°01' W 119°32'3 7.0
2017-Oct-15 17:30N 33°58' W 119°29'0 0.0
2017-Oct-15 17:00N 33°58' W 119°29'0 0.3
2017-Oct-15 16:29N 33°58' W 119°29'0 0.3
2017-Oct-15 15:57N 33°58' W 119°29'0 0.1
2017-Oct-15 15:29N 33°58' W 119°29'0 0.6
2017-Oct-15 15:00N 33°58' W 119°29'2 1.6
2017-Oct-15 13:59N 33°59' W 119°30'2 4.7
2017-Oct-15 13:30N 34°01' W 119°32'0 0.0
2017-Oct-15 13:00N 34°01' W 119°32'0 0.0
2017-Oct-15 12:30N 34°01' W 119°32'0 0.0
2017-Oct-15 12:00N 34°01' W 119°32'0 0.0
2017-Oct-15 11:30N 34°01' W 119°32'0 0.0
2017-Oct-15 11:00N 34°01' W 119°32'1 2.1
2017-Oct-15 10:30N 34°02' W 119°31'5 9.0
2017-Oct-15 10:00N 34°06' W 119°33'5 9.1
2017-Oct-15 09:30N 34°10' W 119°35'5 9.2
2017-Oct-15 09:00N 34°15' W 119°36'5 9.7
2017-Oct-15 08:30N 34°19' W 119°38'5 9.7
2017-Oct-15 08:00N 34°24' W 119°40'1 1.6
2017-Oct-15 07:30N 34°24' W 119°41'0 0.0
2017-Oct-15 07:00N 34°24' W 119°41'0 0.0
2017-Oct-15 06:30N 34°24' W 119°41'0 0.0
2017-Oct-15 06:00N 34°24' W 119°41'0 0.0
2017-Oct-15 05:30N 34°24' W 119°41'0 0.0
2017-Oct-15 05:00N 34°24' W 119°41'1 2.5
2017-Oct-15 04:27N 34°23' W 119°40'4 8.9
2017-Oct-15 04:00N 34°19' W 119°39'5 9.1
2017-Oct-15 03:30N 34°15' W 119°37'5 9.2
2017-Oct-15 03:00N 34°11' W 119°35'5 9.2
2017-Oct-15 02:30N 34°07' W 119°32'5 9.1
2017-Oct-15 01:59N 34°02' W 119°30'4 9.4
2017-Oct-15 01:30N 33°58' W 119°29'0 0.4
2017-Oct-15 01:00N 33°58' W 119°29'0 0.3
2017-Oct-15 00:29N 33°58' W 119°29'0 0.2
2017-Oct-14 23:58N 33°58' W 119°29'0 0.2
2017-Oct-14 23:30N 33°58' W 119°29'1 1.4
2017-Oct-14 23:00N 33°59' W 119°29'0 0.5
2017-Oct-14 22:30N 33°59' W 119°29'0 0.4
2017-Oct-14 22:00N 33°59' W 119°29'3 6.1
2017-Oct-14 21:30N 34°01' W 119°32'0 0.0
2017-Oct-14 21:00N 34°01' W 119°32'0 0.0
2017-Oct-14 20:29N 34°01' W 119°32'0 0.0
2017-Oct-14 20:00N 34°01' W 119°32'0 0.0
2017-Oct-14 19:30N 34°01' W 119°32'0 0.0
2017-Oct-14 19:00N 34°01' W 119°32'0 0.0
2017-Oct-14 18:30N 34°01' W 119°32'0 0.2
2017-Oct-14 18:00N 34°01' W 119°32'4 7.8
2017-Oct-14 17:30N 33°58' W 119°29'0 0.2
2017-Oct-14 17:00N 33°58' W 119°29'0 0.1
2017-Oct-14 16:30N 33°58' W 119°29'0 0.6
2017-Oct-14 16:00N 33°58' W 119°29'0 0.3
2017-Oct-14 15:30N 33°58' W 119°29'0 0.1
2017-Oct-14 14:59N 33°58' W 119°29'0 0.3
2017-Oct-14 14:30N 33°58' W 119°29'1 1.7
2017-Oct-14 14:00N 33°58' W 119°30'3 6.0
2017-Oct-14 13:30N 34°01' W 119°32'0 0.0
2017-Oct-14 13:00N 34°01' W 119°32'0 0.0
2017-Oct-14 12:30N 34°01' W 119°32'0 0.1
2017-Oct-14 12:00N 34°01' W 119°32'0 0.0
2017-Oct-14 11:30N 34°01' W 119°32'0 0.1
2017-Oct-14 11:00N 34°01' W 119°32'0 0.1
2017-Oct-14 10:30N 34°01' W 119°32'0 0.0
2017-Oct-14 10:00N 34°01' W 119°32'0 0.0
2017-Oct-14 09:30N 34°01' W 119°32'0 0.0
2017-Oct-14 08:58N 34°01' W 119°32'0 0.1
2017-Oct-14 08:30N 34°01' W 119°32'0 0.1
2017-Oct-14 08:00N 34°01' W 119°32'0 0.1
2017-Oct-14 07:30N 34°01' W 119°32'0 0.0
2017-Oct-14 07:00N 34°01' W 119°32'0 0.1
2017-Oct-14 06:30N 34°01' W 119°32'0 0.0
2017-Oct-14 06:00N 34°01' W 119°32'0 0.0
2017-Oct-14 05:30N 34°01' W 119°32'0 0.0
2017-Oct-14 05:00N 34°01' W 119°32'0 0.0
2017-Oct-14 04:30N 34°01' W 119°32'0 0.0
2017-Oct-14 04:00N 34°01' W 119°32'0 0.0
2017-Oct-14 03:30N 34°01' W 119°32'0 0.0
2017-Oct-14 03:00N 34°01' W 119°32'2 4.1
2017-Oct-14 02:30N 33°59' W 119°30'1 2.8
2017-Oct-14 02:00N 33°58' W 119°29'1 1.7
2017-Oct-14 01:30N 33°58' W 119°28'1 1.7
2017-Oct-14 00:58N 33°58' W 119°27'3 5.5
2017-Oct-14 00:29N 33°55' W 119°28'1 2.2
2017-Oct-14 00:00N 33°54' W 119°28'0 0.7
2017-Oct-13 23:30N 33°54' W 119°28'0 0.1
2017-Oct-13 23:00N 33°54' W 119°28'2 2.9
2017-Oct-13 22:26N 33°55' W 119°29'0 0.5
2017-Oct-13 21:56N 33°55' W 119°30'3 6.7
2017-Oct-13 21:29N 33°57' W 119°33'4 9.0
2017-Oct-13 21:00N 33°58' W 119°38'4 2.4
2017-Oct-13 19:26N 33°58' W 119°42'0 0.0
2017-Oct-13 19:00N 33°58' W 119°42'0 0.0
2017-Oct-13 18:30N 33°58' W 119°42'3 5.4
2017-Oct-13 18:00N 33°57' W 119°39'4 8.6
2017-Oct-13 17:30N 33°57' W 119°34'4 7.8
2017-Oct-13 17:00N 33°58' W 119°29'0 0.6
2017-Oct-13 16:30N 33°58' W 119°29'0 0.4
2017-Oct-13 16:00N 33°58' W 119°29'0 0.2
2017-Oct-13 15:26N 33°58' W 119°29'0 0.5
2017-Oct-13 15:00N 33°58' W 119°29'0 0.4
2017-Oct-13 14:30N 33°58' W 119°29'2 4.4
2017-Oct-13 14:00N 33°60' W 119°31'2 3.9
2017-Oct-13 13:30N 34°01' W 119°32'0 0.0
2017-Oct-13 13:00N 34°01' W 119°32'0 0.0
2017-Oct-13 12:30N 34°01' W 119°32'0 0.0
2017-Oct-13 11:59N 34°01' W 119°32'0 0.0
2017-Oct-13 11:30N 34°01' W 119°32'0 0.0
2017-Oct-13 11:00N 34°01' W 119°32'0 0.0
2017-Oct-13 10:28N 34°01' W 119°32'0 0.0
2017-Oct-13 10:00N 34°01' W 119°32'0 0.0
2017-Oct-13 09:30N 34°01' W 119°32'0 0.0
2017-Oct-13 09:00N 34°01' W 119°32'0 0.0
2017-Oct-13 08:30N 34°01' W 119°32'0 0.0
2017-Oct-13 08:00N 34°01' W 119°32'0 0.0
2017-Oct-13 07:30N 34°01' W 119°32'0 0.0
2017-Oct-13 07:00N 34°01' W 119°32'0 0.0
2017-Oct-13 06:30N 34°01' W 119°32'0 0.0
2017-Oct-13 06:00N 34°01' W 119°32'0 0.0
2017-Oct-13 05:30N 34°01' W 119°32'0 0.0
2017-Oct-13 05:00N 34°01' W 119°32'0 0.0
2017-Oct-13 04:30N 34°01' W 119°32'0 0.0
2017-Oct-13 04:00N 34°01' W 119°32'0 0.0
2017-Oct-13 03:29N 34°01' W 119°32'0 0.0
2017-Oct-13 03:00N 34°01' W 119°32'0 0.0
2017-Oct-13 02:28N 34°01' W 119°32'0 0.0
2017-Oct-13 01:59N 34°01' W 119°32'0 0.0
2017-Oct-13 01:30N 34°01' W 119°32'0 0.0
2017-Oct-13 01:00N 34°01' W 119°32'0 0.0
2017-Oct-13 00:30N 34°01' W 119°32'0 0.0
2017-Oct-12 23:57N 34°01' W 119°32'0 0.5
2017-Oct-12 23:30N 34°01' W 119°32'4 7.5
2017-Oct-12 23:00N 33°58' W 119°29'1 2.0
2017-Oct-12 22:29N 33°59' W 119°29'3 5.5
2017-Oct-12 21:59N 34°01' W 119°32'0 0.2
2017-Oct-12 21:30N 34°01' W 119°32'0 0.0
2017-Oct-12 20:59N 34°01' W 119°32'0 0.0
2017-Oct-12 20:30N 34°01' W 119°32'0 0.0
2017-Oct-12 20:00N 34°01' W 119°32'3 5.1
2017-Oct-12 19:28N 33°59' W 119°30'1 3.1
2017-Oct-12 19:00N 33°58' W 119°29'0 0.2
2017-Oct-12 18:29N 33°58' W 119°29'0 0.3
2017-Oct-12 18:00N 33°58' W 119°29'0 0.3
2017-Oct-12 17:25N 33°58' W 119°29'0 0.2
2017-Oct-12 17:00N 33°58' W 119°29'0 0.4
2017-Oct-12 16:30N 33°58' W 119°29'0 0.5
2017-Oct-12 15:57N 33°58' W 119°29'0 0.6
2017-Oct-12 15:30N 33°58' W 119°29'0 0.4
2017-Oct-12 15:00N 33°58' W 119°29'0 0.7
2017-Oct-12 14:26N 33°58' W 119°29'2 5.0
2017-Oct-12 14:00N 33°60' W 119°31'2 3.6
2017-Oct-12 13:28N 34°01' W 119°32'0 0.0
2017-Oct-12 13:00N 34°01' W 119°32'0 0.0
2017-Oct-12 12:30N 34°01' W 119°32'0 0.0
2017-Oct-12 11:55N 34°01' W 119°32'0 0.0
2017-Oct-12 11:29N 34°01' W 119°32'0 0.0
2017-Oct-12 10:55N 34°01' W 119°32'0 0.0
2017-Oct-12 10:30N 34°01' W 119°32'0 0.0
2017-Oct-12 10:00N 34°01' W 119°32'0 0.0
2017-Oct-12 09:30N 34°01' W 119°32'0 0.0
2017-Oct-12 09:00N 34°01' W 119°32'0 0.0
2017-Oct-12 08:30N 34°01' W 119°32'0 0.0
2017-Oct-12 08:00N 34°01' W 119°32'0 0.0
2017-Oct-12 07:30N 34°01' W 119°32'0 0.0
2017-Oct-12 07:00N 34°01' W 119°32'0 0.0
2017-Oct-12 06:30N 34°01' W 119°32'0 0.0
2017-Oct-12 06:00N 34°01' W 119°32'0 0.0
2017-Oct-12 05:30N 34°01' W 119°32'0 0.0
2017-Oct-12 04:56N 34°01' W 119°32'0 0.0
2017-Oct-12 04:30N 34°01' W 119°32'0 0.0
2017-Oct-12 03:59N 34°01' W 119°32'0 0.0
2017-Oct-12 03:30N 34°01' W 119°32'0 0.0
2017-Oct-12 03:00N 34°01' W 119°32'0 0.0
2017-Oct-12 02:30N 34°01' W 119°32'0 0.0
2017-Oct-12 02:00N 34°01' W 119°32'4 8.1
2017-Oct-12 01:30N 33°58' W 119°29'0 0.2
2017-Oct-12 01:00N 33°58' W 119°29'0 0.1
2017-Oct-12 00:29N 33°58' W 119°29'0 0.5
2017-Oct-12 00:00N 33°58' W 119°29'0 0.3
2017-Oct-11 23:30N 33°58' W 119°29'0 0.1
2017-Oct-11 23:00N 33°58' W 119°29'0 0.2
2017-Oct-11 22:30N 33°58' W 119°29'0 0.1
2017-Oct-11 21:59N 33°58' W 119°29'3 5.3
2017-Oct-11 21:30N 33°59' W 119°27'0 0.7
2017-Oct-11 20:59N 33°59' W 119°27'2 3.4
2017-Oct-11 20:29N 33°58' W 119°28'0 0.4
2017-Oct-11 19:59N 33°58' W 119°29'0 0.5
2017-Oct-11 19:30N 33°58' W 119°29'0 0.1
2017-Oct-11 19:00N 33°58' W 119°29'0 0.1
2017-Oct-11 18:30N 33°58' W 119°29'0 0.4
2017-Oct-11 18:00N 33°58' W 119°29'0 0.4
2017-Oct-11 17:30N 33°58' W 119°29'0 0.2
2017-Oct-11 17:00N 33°58' W 119°29'0 0.0
2017-Oct-11 00:00N 33°58' W 119°29'0 0.2
2017-Oct-10 23:30N 33°58' W 119°29'0 0.1
2017-Oct-10 23:00N 33°58' W 119°29'0 0.1
2017-Oct-10 22:30N 33°58' W 119°29'0 0.1
2017-Oct-10 22:00N 33°58' W 119°29'2 3.3
2017-Oct-10 21:30N 33°59' W 119°30'2 4.9
2017-Oct-10 21:00N 34°01' W 119°32'0 0.0
2017-Oct-10 20:30N 34°01' W 119°32'0 0.0
2017-Oct-10 20:00N 34°01' W 119°32'0 0.0
2017-Oct-10 19:30N 34°01' W 119°32'0 0.0
2017-Oct-10 19:00N 34°01' W 119°32'0 0.0
2017-Oct-10 18:30N 34°01' W 119°32'0 0.0
2017-Oct-10 18:00N 34°01' W 119°32'0 0.0
2017-Oct-10 17:30N 34°01' W 119°32'0 0.0
2017-Oct-10 17:00N 34°01' W 119°32'0 0.0
2017-Oct-10 16:30N 34°01' W 119°32'0 0.0
2017-Oct-10 16:00N 34°01' W 119°32'0 0.0
2017-Oct-10 15:30N 34°01' W 119°32'0 0.0
2017-Oct-10 15:00N 34°01' W 119°32'0 0.0
2017-Oct-10 14:00N 34°01' W 119°32'0 0.0
2017-Oct-10 13:30N 34°01' W 119°32'0 0.0
2017-Oct-10 13:00N 34°01' W 119°32'0 0.0
2017-Oct-10 12:30N 34°01' W 119°32'0 0.0
2017-Oct-10 12:00N 34°01' W 119°32'0 0.1
2017-Oct-10 11:30N 34°01' W 119°32'0 0.0
2017-Oct-10 11:00N 34°01' W 119°32'0 0.0
2017-Oct-10 10:30N 34°01' W 119°32'0 0.0
2017-Oct-10 10:00N 34°01' W 119°32'0 0.0
2017-Oct-10 09:30N 34°01' W 119°32'0 0.0
2017-Oct-10 09:00N 34°01' W 119°32'0 0.1
2017-Oct-10 08:30N 34°01' W 119°32'0 0.1
2017-Oct-10 08:00N 34°01' W 119°32'0 0.0
2017-Oct-10 07:30N 34°01' W 119°32'0 0.1
2017-Oct-10 07:00N 34°01' W 119°32'0 0.0
2017-Oct-10 06:30N 34°01' W 119°32'0 0.0
2017-Oct-10 06:00N 34°01' W 119°32'0 0.1
2017-Oct-10 05:30N 34°01' W 119°32'0 0.0
2017-Oct-10 05:00N 34°01' W 119°32'0 0.0
2017-Oct-10 04:30N 34°01' W 119°32'0 0.0
2017-Oct-10 04:00N 34°01' W 119°32'0 0.7
2017-Oct-10 03:30N 34°01' W 119°32'4 8.6
2017-Oct-10 03:00N 34°05' W 119°28'5 9.1
2017-Oct-10 02:30N 34°09' W 119°26'4 8.7
2017-Oct-10 02:00N 34°12' W 119°22'4 8.4
2017-Oct-10 01:30N 34°14' W 119°18'2 3.2
2017-Oct-10 01:00N 34°14' W 119°16'0 0.0
2017-Oct-10 00:23N 34°14' W 119°16'0 0.0
2017-Oct-10 00:00N 34°14' W 119°16'0 0.1
2017-Oct-09 23:28N 34°14' W 119°16'0 0.0
2017-Oct-09 23:00N 34°14' W 119°16'0 0.0
2017-Oct-09 22:30N 34°14' W 119°16'0 0.1
2017-Oct-09 21:59N 34°14' W 119°16'0 0.0
2017-Oct-09 21:30N 34°14' W 119°16'0 0.1
2017-Oct-09 20:57N 34°14' W 119°16'0 0.0
2017-Oct-09 20:26N 34°14' W 119°16'0 0.0
2017-Oct-09 19:58N 34°14' W 119°16'0 0.0
2017-Oct-09 19:26N 34°14' W 119°16'0 0.0
2017-Oct-09 19:00N 34°14' W 119°16'0 0.0
2017-Oct-09 18:30N 34°14' W 119°16'0 0.0
2017-Oct-09 18:00N 34°14' W 119°16'0 0.0
2017-Oct-09 17:29N 34°14' W 119°16'0 0.0
2017-Oct-09 16:57N 34°14' W 119°16'0 0.0
2017-Oct-09 16:30N 34°14' W 119°16'0 0.0
2017-Oct-09 16:00N 34°14' W 119°16'0 0.0
2017-Oct-09 15:30N 34°14' W 119°16'0 0.0
2017-Oct-09 15:00N 34°14' W 119°16'0 0.0
2017-Oct-09 14:30N 34°14' W 119°16'0 0.0
2017-Oct-09 14:00N 34°14' W 119°16'0 0.0
2017-Oct-09 13:28N 34°14' W 119°16'0 0.0
2017-Oct-09 12:50N 34°14' W 119°16'0 0.0
2017-Oct-09 12:30N 34°14' W 119°16'0 0.1
2017-Oct-09 11:57N 34°14' W 119°16'0 0.1
2017-Oct-09 11:29N 34°14' W 119°16'  

Dump ship's entire track history